createdAt,value
2023-04-13T00:00:11.368Z,21.2
2023-04-13T00:02:11.592Z,21.2
2023-04-13T00:04:11.372Z,21.5
2023-04-13T00:06:11.970Z,21.4
2023-04-13T00:08:11.380Z,21.2
2023-04-13T00:10:11.420Z,21.1
2023-04-13T00:12:11.349Z,20.9
2023-04-13T00:14:11.406Z,21.0
2023-04-13T00:16:11.393Z,20.0
2023-04-13T00:18:11.361Z,21.2
2023-04-13T00:20:11.380Z,21.1
2023-04-13T00:22:11.319Z,21.0
2023-04-13T00:24:16.230Z,20.0
2023-04-13T00:26:11.364Z,19.4
2023-04-13T00:28:11.514Z,19.5
2023-04-13T00:30:14.313Z,19.7
2023-04-13T00:32:11.345Z,19.4
2023-04-13T00:34:11.463Z,19.8
2023-04-13T00:36:11.437Z,19.8
2023-04-13T00:38:11.369Z,19.7
2023-04-13T00:40:11.382Z,19.6
2023-04-13T00:42:11.334Z,19.4
2023-04-13T00:44:13.893Z,19.4
2023-04-13T00:46:11.487Z,19.1
2023-04-13T00:48:11.490Z,19.3
2023-04-13T00:50:11.697Z,19.1
2023-04-13T00:52:13.165Z,19.0
2023-04-13T00:54:11.377Z,18.9
2023-04-13T00:56:14.442Z,19.0
2023-04-13T00:58:11.357Z,19.2
2023-04-13T01:00:11.360Z,19.3
2023-04-13T01:02:11.584Z,19.4
2023-04-13T01:04:11.475Z,19.4
2023-04-13T01:06:11.506Z,19.4
2023-04-13T01:08:11.350Z,19.4
2023-04-13T01:10:11.363Z,19.3
2023-04-13T01:12:11.642Z,19.4
2023-04-13T01:14:11.385Z,19.3
2023-04-13T01:16:11.492Z,19.2
2023-04-13T01:18:11.405Z,19.1
2023-04-13T01:20:11.788Z,19.4
2023-04-13T01:22:12.530Z,19.5
2023-04-13T01:24:11.528Z,19.7
2023-04-13T01:26:11.406Z,19.6
2023-04-13T01:28:11.368Z,19.8
2023-04-13T01:30:11.382Z,19.9
2023-04-13T01:32:11.436Z,20.0
2023-04-13T01:34:11.456Z,19.8
2023-04-13T01:36:12.248Z,19.9
2023-04-13T01:38:11.584Z,20.0
2023-04-13T01:40:11.394Z,20.2
2023-04-13T01:42:11.414Z,20.2
2023-04-13T01:44:11.392Z,20.0
2023-04-13T01:46:12.126Z,20.1
2023-04-13T01:48:11.499Z,19.8
2023-04-13T01:50:14.101Z,23.0
2023-04-13T01:52:11.448Z,20.3
2023-04-13T01:54:11.747Z,21.6
2023-04-13T01:56:11.404Z,21.4
2023-04-13T01:58:11.822Z,22.2
2023-04-13T02:00:11.436Z,22.8
2023-04-13T02:02:11.553Z,23.0
2023-04-13T02:04:11.465Z,23.7
2023-04-13T02:06:11.454Z,23.4
2023-04-13T02:08:11.376Z,23.7
2023-04-13T02:10:11.558Z,23.2
2023-04-13T02:12:11.558Z,23.1
2023-04-13T02:14:11.451Z,23.0
2023-04-13T02:16:11.524Z,22.7
2023-04-13T02:18:11.382Z,22.3
2023-04-13T02:20:14.329Z,22.1
2023-04-13T02:22:11.484Z,21.9
2023-04-13T02:24:11.449Z,22.0
2023-04-13T02:26:15.509Z,21.9
2023-04-13T02:28:11.482Z,21.8
2023-04-13T02:30:11.421Z,21.9
2023-04-13T02:32:11.521Z,21.6
2023-04-13T02:34:11.548Z,21.6
2023-04-13T02:36:11.653Z,21.7
2023-04-13T02:38:13.140Z,21.6
2023-04-13T02:40:11.495Z,21.6
2023-04-13T02:42:11.438Z,21.4
2023-04-13T02:44:14.247Z,21.5
2023-04-13T02:46:17.456Z,21.5
2023-04-13T02:48:11.512Z,21.3
2023-04-13T02:50:11.455Z,21.3
2023-04-13T02:52:13.003Z,21.2
2023-04-13T02:54:16.336Z,21.0
2023-04-13T02:56:11.570Z,21.1
2023-04-13T02:58:11.533Z,21.1
2023-04-13T03:00:11.426Z,21.0
2023-04-13T03:02:11.479Z,21.1
2023-04-13T03:04:11.444Z,20.6
2023-04-13T03:06:12.185Z,20.9
2023-04-13T03:08:11.453Z,20.9
2023-04-13T03:10:11.514Z,20.9
2023-04-13T03:12:16.348Z,20.8
2023-04-13T03:14:11.428Z,20.7
2023-04-13T03:16:11.561Z,20.8
2023-04-13T03:18:11.462Z,20.8
2023-04-13T03:20:11.421Z,20.7
2023-04-13T03:22:11.461Z,20.8
2023-04-13T03:24:11.519Z,20.7
2023-04-13T03:27:11.494Z,20.5
2023-04-13T03:29:13.710Z,20.5
2023-04-13T03:31:11.491Z,20.6
2023-04-13T03:33:11.479Z,20.6
2023-04-13T03:35:16.369Z,20.3
2023-04-13T03:36:14.893Z,20.2
2023-04-13T03:39:11.615Z,20.2
2023-04-13T03:41:11.504Z,20.5
2023-04-13T03:43:14.166Z,20.6
2023-04-13T03:45:11.508Z,20.7
2023-04-13T03:47:11.688Z,20.8
2023-04-13T03:49:11.509Z,20.8
2023-04-13T03:51:11.500Z,20.9
2023-04-13T03:53:11.566Z,20.9
2023-04-13T03:55:14.551Z,21.0
2023-04-13T03:57:11.487Z,20.9
2023-04-13T03:59:11.528Z,20.9
2023-04-13T04:01:11.474Z,20.6
2023-04-13T04:03:11.575Z,20.7
2023-04-13T04:05:11.638Z,20.6
2023-04-13T04:07:11.667Z,20.5
2023-04-13T04:09:11.605Z,20.7
2023-04-13T04:11:11.475Z,20.6
2023-04-13T04:13:14.219Z,20.9
2023-04-13T04:15:14.142Z,20.7
2023-04-13T04:17:11.467Z,20.9
2023-04-13T04:19:11.497Z,21.3
2023-04-13T04:21:14.266Z,21.3
2023-04-13T04:23:11.464Z,21.5
2023-04-13T04:25:11.554Z,21.9
2023-04-13T04:27:11.495Z,21.9
2023-04-13T04:29:11.465Z,22.0
2023-04-13T04:31:11.707Z,21.9
2023-04-13T04:33:11.697Z,22.0
2023-04-13T04:35:11.629Z,22.3
2023-04-13T04:37:20.406Z,22.2
2023-04-13T04:39:11.589Z,22.1
2023-04-13T04:41:11.493Z,21.8
2023-04-13T04:43:11.477Z,21.7
2023-04-13T04:45:11.611Z,21.5
2023-04-13T04:47:11.529Z,21.8
2023-04-13T04:49:11.507Z,21.8
2023-04-13T04:51:11.506Z,21.9
2023-04-13T04:53:13.277Z,22.0
2023-04-13T04:55:11.480Z,22.0
2023-04-13T04:57:11.531Z,22.0
2023-04-13T04:59:11.545Z,22.1
2023-04-13T05:01:11.542Z,22.2
2023-04-13T05:03:14.362Z,22.1
2023-04-13T05:05:11.675Z,22.0
2023-04-13T05:07:11.533Z,21.8
2023-04-13T05:09:11.510Z,21.9
2023-04-13T05:11:11.625Z,21.9
2023-04-13T05:13:11.607Z,21.6
2023-04-13T05:15:11.633Z,21.8
2023-04-13T05:17:11.599Z,21.8
2023-04-13T05:19:11.539Z,21.7
2023-04-13T05:21:11.612Z,21.6
2023-04-13T05:23:11.660Z,21.4
2023-04-13T05:25:11.501Z,21.1
2023-04-13T05:27:11.539Z,20.9
2023-04-13T05:29:11.560Z,20.9
2023-04-13T05:31:11.593Z,21.1
2023-04-13T05:33:12.045Z,21.4
2023-04-13T05:35:11.530Z,21.3
2023-04-13T05:37:11.698Z,21.4
2023-04-13T05:39:11.618Z,21.6
2023-04-13T05:41:11.797Z,21.6
2023-04-13T05:43:12.273Z,21.4
2023-04-13T05:45:11.730Z,21.7
2023-04-13T05:47:14.562Z,21.2
2023-04-13T05:51:39.705Z,21.2
2023-04-13T05:53:37.251Z,21.3
2023-04-13T05:55:42.108Z,21.3
2023-04-13T05:57:37.158Z,21.2
2023-04-13T05:59:37.157Z,21.2
2023-04-13T06:01:37.186Z,21.1
2023-04-13T06:03:37.536Z,21.3
2023-04-13T06:05:37.182Z,21.3
2023-04-13T06:07:42.147Z,21.5
2023-04-13T06:09:37.259Z,21.5
2023-04-13T06:11:37.479Z,21.7
2023-04-13T06:13:37.288Z,21.8
2023-04-13T06:15:37.196Z,21.5
2023-04-13T06:17:37.398Z,21.6
2023-04-13T06:19:42.168Z,21.5
2023-04-13T06:21:37.428Z,21.5
2023-04-13T06:23:39.756Z,21.4
2023-04-13T06:25:37.197Z,21.5
2023-04-13T06:27:37.606Z,21.7
2023-04-13T06:29:37.284Z,21.4
2023-04-13T06:31:37.400Z,21.3
2023-04-13T06:33:37.500Z,21.3
2023-04-13T06:35:40.667Z,21.3
2023-04-13T06:37:40.691Z,21.2
2023-04-13T06:39:38.956Z,21.4
2023-04-13T06:41:37.484Z,21.2
2023-04-13T06:43:37.226Z,21.4
2023-04-13T06:45:37.196Z,21.2
2023-04-13T06:47:37.282Z,21.2
2023-04-13T06:49:42.117Z,21.3
2023-04-13T06:51:37.187Z,21.4
2023-04-13T06:53:37.176Z,21.4
2023-04-13T06:55:37.337Z,21.4
2023-04-13T06:57:37.212Z,21.6
2023-04-13T06:59:37.199Z,21.3
2023-04-13T07:01:37.453Z,21.3
2023-04-13T07:03:37.466Z,21.2
2023-04-13T07:05:37.733Z,21.3
2023-04-13T07:07:37.290Z,21.2
2023-04-13T07:09:37.939Z,20.9
2023-04-13T07:11:37.342Z,20.6
2023-04-13T07:13:37.374Z,20.6
2023-04-13T07:15:37.389Z,20.6
2023-04-13T07:17:37.288Z,20.9
2023-04-13T07:19:37.224Z,21.0
2023-04-13T07:21:37.293Z,21.2
2023-04-13T07:23:37.346Z,21.3
2023-04-13T07:25:37.248Z,21.3
2023-04-13T07:27:37.268Z,21.4
2023-04-13T07:29:37.289Z,21.6
2023-04-13T07:31:37.290Z,21.7
2023-04-13T07:33:38.154Z,21.3
2023-04-13T07:35:37.215Z,21.2
2023-04-13T07:37:37.261Z,21.4
2023-04-13T07:39:39.107Z,21.2
2023-04-13T07:41:37.393Z,21.2
2023-04-13T07:43:37.347Z,21.1
2023-04-13T07:45:37.383Z,20.9
2023-04-13T07:47:37.342Z,21.0
2023-04-13T07:49:37.230Z,21.0
2023-04-13T07:51:37.221Z,20.9
2023-04-13T07:53:37.822Z,20.8
2023-04-13T07:55:37.235Z,20.6
2023-04-13T07:57:37.342Z,20.4
2023-04-13T07:59:37.421Z,20.6
2023-04-13T08:01:37.357Z,20.5
2023-04-13T08:03:37.425Z,20.7
2023-04-13T08:05:37.274Z,20.9
2023-04-13T08:07:37.276Z,20.9
2023-04-13T08:09:37.353Z,21.0
2023-04-13T08:11:42.615Z,21.1
2023-04-13T08:13:37.334Z,21.0
2023-04-13T08:15:37.436Z,21.3
2023-04-13T08:17:37.663Z,21.0
2023-04-13T08:19:37.343Z,20.7
2023-04-13T08:21:37.361Z,20.3
2023-04-13T08:23:37.347Z,20.1
2023-04-13T08:25:37.403Z,20.1
2023-04-13T08:27:37.484Z,17.5
2023-04-13T08:29:37.900Z,22.8
2023-04-13T08:31:42.209Z,23.7
2023-04-13T08:33:37.363Z,22.6
2023-04-13T08:35:37.555Z,22.0
2023-04-13T08:37:37.392Z,22.1
2023-04-13T08:39:37.305Z,21.9
2023-04-13T08:41:41.912Z,21.2
2023-04-13T08:43:37.375Z,21.2
2023-04-13T08:45:37.330Z,21.6
2023-04-13T08:47:37.387Z,22.9
2023-04-13T08:49:44.919Z,22.8
2023-04-13T08:52:37.438Z,22.7
2023-04-13T08:54:40.377Z,22.0
2023-04-13T08:55:40.522Z,21.9
2023-04-13T08:58:37.327Z,22.6
2023-04-13T09:00:43.751Z,22.1
2023-04-13T09:02:38.400Z,22.2
2023-04-13T09:04:43.208Z,22.1
2023-04-13T09:06:39.994Z,22.3
2023-04-13T09:07:44.703Z,22.3
2023-04-13T09:10:37.328Z,22.3
2023-04-13T09:12:37.253Z,22.1
2023-04-13T09:13:49.171Z,21.9
2023-04-13T09:16:37.407Z,21.8
2023-04-13T09:18:42.321Z,21.8
2023-04-13T09:20:37.419Z,21.7
2023-04-13T09:22:37.500Z,21.9
2023-04-13T09:24:37.368Z,21.7
2023-04-13T09:26:42.222Z,21.8
2023-04-13T09:28:37.422Z,21.5
2023-04-13T09:30:37.366Z,21.5
2023-04-13T09:32:37.631Z,21.4
2023-04-13T09:34:37.473Z,21.8
2023-04-13T09:36:46.332Z,21.6
2023-04-13T09:38:37.397Z,21.8
2023-04-13T09:40:37.440Z,22.1
2023-04-13T09:42:38.713Z,21.9
2023-04-13T09:44:37.456Z,21.7
2023-04-13T09:46:37.525Z,21.3
2023-04-13T09:48:37.374Z,21.0
2023-04-13T09:50:37.349Z,20.9
2023-04-13T09:52:37.315Z,20.7
2023-04-13T09:54:37.516Z,20.9
2023-04-13T09:56:37.345Z,20.6
2023-04-13T09:58:37.350Z,20.8
2023-04-13T10:00:37.319Z,21.2
2023-04-13T10:02:37.562Z,21.2
2023-04-13T10:04:37.366Z,21.4
2023-04-13T10:06:37.321Z,21.0
2023-04-13T10:08:38.875Z,20.9
2023-04-13T10:10:37.296Z,20.9
2023-04-13T10:12:38.453Z,21.3
2023-04-13T10:14:37.464Z,21.6
2023-04-13T10:16:37.449Z,21.4
2023-04-13T10:18:38.523Z,21.3
2023-04-13T10:20:37.397Z,21.3
2023-04-13T10:22:37.484Z,21.2
2023-04-13T10:24:37.384Z,21.4
2023-04-13T10:26:37.626Z,21.1
2023-04-13T10:28:37.499Z,21.5
2023-04-13T10:30:37.761Z,21.3
2023-04-13T10:32:42.051Z,21.4
2023-04-13T10:34:42.253Z,21.3
2023-04-13T10:36:37.470Z,21.1
2023-04-13T10:38:37.359Z,20.8
2023-04-13T10:40:37.335Z,20.8
2023-04-13T10:42:50.380Z,21.1
2023-04-13T10:44:38.935Z,21.1
2023-04-13T10:46:37.435Z,21.1
2023-04-13T10:48:37.366Z,21.2
2023-04-13T10:50:37.390Z,21.4
2023-04-13T10:52:37.381Z,21.6
2023-04-13T10:54:37.311Z,21.7
2023-04-13T10:56:41.146Z,21.7
2023-04-13T10:58:37.361Z,21.2
2023-04-13T11:00:46.466Z,21.0
2023-04-13T11:02:37.716Z,21.1
2023-04-13T11:04:37.612Z,20.9
2023-04-13T11:06:37.362Z,20.9
2023-04-13T11:08:37.759Z,21.2
2023-04-13T11:10:42.076Z,21.1
2023-04-13T11:12:37.806Z,20.8
2023-04-13T11:14:37.331Z,20.5
2023-04-13T11:16:38.111Z,20.6
2023-04-13T11:18:37.433Z,20.5
2023-04-13T11:20:37.393Z,20.5
2023-04-13T11:22:37.358Z,20.4
2023-04-13T11:24:37.443Z,20.7
2023-04-13T11:26:38.244Z,20.9
2023-04-13T11:28:41.581Z,20.9
2023-04-13T11:30:37.509Z,20.9
2023-04-13T11:32:37.421Z,20.7
2023-04-13T11:34:39.592Z,20.4
2023-04-13T11:36:37.438Z,20.6
2023-04-13T11:38:37.424Z,20.7
2023-04-13T11:42:37.454Z,20.4
2023-04-13T11:46:37.627Z,20.6
2023-04-13T11:48:37.377Z,20.6
2023-04-13T11:52:37.570Z,20.4
2023-04-13T11:56:37.396Z,20.8
2023-04-13T11:58:37.473Z,21.0
2023-04-13T12:02:45.095Z,21.0
2023-04-13T12:06:37.750Z,21.4
2023-04-13T12:08:37.782Z,21.3
2023-04-13T12:19:16.681Z,22.1
2023-04-13T12:21:20.949Z,22.1
2023-04-13T12:23:22.739Z,22.2
2023-04-13T12:25:16.601Z,21.8
2023-04-13T12:27:18.338Z,21.8
2023-04-13T12:29:15.838Z,21.6
2023-04-13T12:31:15.834Z,21.7
2023-04-13T12:33:15.804Z,21.9
2023-04-13T12:35:18.699Z,22.1
2023-04-13T12:37:15.871Z,22.6
2023-04-13T12:39:15.907Z,22.4
2023-04-13T12:41:15.831Z,22.4
2023-04-13T12:43:16.037Z,22.5
2023-04-13T12:45:15.842Z,22.6
2023-04-13T12:47:15.911Z,22.7
2023-04-13T12:49:16.013Z,22.8
2023-04-13T12:51:15.864Z,22.8
2023-04-13T12:53:15.832Z,22.8
2023-04-13T12:55:15.837Z,22.7
2023-04-13T12:57:15.879Z,22.5
2023-04-13T12:59:15.954Z,22.3
2023-04-13T13:01:15.950Z,22.0
2023-04-13T13:03:16.138Z,21.9
2023-04-13T13:05:15.942Z,21.9
2023-04-13T13:07:16.029Z,21.5
2023-04-13T13:09:15.843Z,21.4
2023-04-13T13:11:15.826Z,21.1
2023-04-13T13:13:20.735Z,21.2
2023-04-13T13:15:16.097Z,21.4
2023-04-13T13:17:15.874Z,21.0
2023-04-13T13:19:15.856Z,21.0
2023-04-13T13:21:15.833Z,21.2
2023-04-13T13:23:15.829Z,20.9
2023-04-13T13:25:16.348Z,21.0
2023-04-13T13:29:16.208Z,21.0
2023-04-13T13:31:15.984Z,20.8
2023-04-13T13:33:18.831Z,20.9
2023-04-13T13:35:16.121Z,20.8
2023-04-13T13:37:15.961Z,20.4
2023-04-13T13:39:18.800Z,20.8
2023-04-13T13:41:16.016Z,20.8
2023-04-13T13:43:20.304Z,20.6
2023-04-13T13:45:15.977Z,20.5
2023-04-13T13:47:15.937Z,20.3
2023-04-13T13:49:16.122Z,20.2
2023-04-13T13:51:18.734Z,20.2
2023-04-13T13:53:15.962Z,20.3
2023-04-13T13:55:15.975Z,20.2
2023-04-13T13:57:15.952Z,20.3
2023-04-13T13:59:15.942Z,20.2
2023-04-13T14:01:15.959Z,20.2
2023-04-13T14:03:16.256Z,20.3
2023-04-13T14:05:15.939Z,20.0
2023-04-13T14:07:16.139Z,20.2
2023-04-13T14:09:16.702Z,20.3
2023-04-13T14:11:16.143Z,20.7
2023-04-13T14:13:16.105Z,20.6
2023-04-13T14:15:18.573Z,20.4
2023-04-13T14:17:15.943Z,20.8
2023-04-13T14:19:16.519Z,20.7
2023-04-13T14:21:16.124Z,20.7
2023-04-13T14:23:16.088Z,21.0
2023-04-13T14:25:16.007Z,20.9
2023-04-13T14:27:16.065Z,21.0
2023-04-13T14:29:15.971Z,21.0
2023-04-13T14:31:16.885Z,21.0
2023-04-13T14:33:19.745Z,21.1
2023-04-13T14:35:17.172Z,21.1
2023-04-13T14:37:16.193Z,21.4
2023-04-13T14:39:16.026Z,21.3
2023-04-13T14:41:16.403Z,21.2
2023-04-13T14:43:17.564Z,21.4
2023-04-13T14:45:17.995Z,21.3
2023-04-13T14:47:21.079Z,21.3
2023-04-13T14:49:17.092Z,21.0
2023-04-13T14:51:16.161Z,20.9
2023-04-13T14:53:16.382Z,21.0
2023-04-13T14:55:16.363Z,21.0
2023-04-13T14:58:15.972Z,21.3
2023-04-13T15:00:16.077Z,21.5
2023-04-13T15:01:21.169Z,21.6
2023-04-13T15:03:19.823Z,21.6
2023-04-13T15:06:15.999Z,21.6
2023-04-13T15:08:16.073Z,21.7
2023-04-13T15:10:16.362Z,21.4
2023-04-13T15:11:21.969Z,21.5
2023-04-13T15:14:15.973Z,21.3
2023-04-13T15:16:16.473Z,21.3
2023-04-13T15:18:16.151Z,21.4
2023-04-13T15:20:15.974Z,21.3
2023-04-13T15:22:15.977Z,21.3
2023-04-13T15:24:18.099Z,21.2
2023-04-13T15:26:16.067Z,21.4
2023-04-13T15:28:16.025Z,21.2
2023-04-13T15:30:16.037Z,21.2
2023-04-13T15:32:16.100Z,21.1
2023-04-13T15:34:16.242Z,21.1
2023-04-13T15:36:18.608Z,20.9
2023-04-13T15:38:16.193Z,20.9
2023-04-13T15:40:16.574Z,20.9
2023-04-13T15:42:16.442Z,20.8
2023-04-13T15:44:15.960Z,20.3
2023-04-13T15:46:16.027Z,20.4
2023-04-13T15:48:16.488Z,20.5
2023-04-13T15:50:16.096Z,21.0
2023-04-13T15:52:16.073Z,21.3
2023-04-13T15:54:16.007Z,21.1
2023-04-13T15:56:15.986Z,20.8
2023-04-13T15:58:16.057Z,20.8
2023-04-13T16:00:16.046Z,20.8
2023-04-13T16:02:21.156Z,20.7
2023-04-13T16:04:16.365Z,20.7
2023-04-13T16:06:16.101Z,20.8
2023-04-13T16:08:16.107Z,20.7
2023-04-13T16:10:19.104Z,20.6
2023-04-13T16:12:20.860Z,20.8
2023-04-13T16:14:16.007Z,21.0
2023-04-13T16:16:16.011Z,20.7
2023-04-13T16:18:16.100Z,20.6
2023-04-13T16:20:16.004Z,20.8
2023-04-13T16:22:16.206Z,20.7
2023-04-13T16:24:16.098Z,20.6
2023-04-13T16:26:16.146Z,20.3
2023-04-13T16:28:16.091Z,20.4
2023-04-13T16:30:17.346Z,20.3
2023-04-13T16:32:16.421Z,20.3
2023-04-13T16:34:25.629Z,19.9
2023-04-13T16:36:18.879Z,19.9
2023-04-13T16:38:16.056Z,19.9
2023-04-13T16:40:16.010Z,20.1
2023-04-13T16:42:16.143Z,20.3
2023-04-13T16:44:19.244Z,20.6
2023-04-13T16:46:16.077Z,20.4
2023-04-13T16:48:15.974Z,20.7
2023-04-13T16:50:16.288Z,20.5
2023-04-13T16:52:15.988Z,20.5
2023-04-13T16:54:16.088Z,20.6
2023-04-13T16:56:18.728Z,20.6
2023-04-13T16:58:16.037Z,20.5
2023-04-13T17:00:16.074Z,20.4
2023-04-13T17:02:30.224Z,20.5
2023-04-13T17:04:17.711Z,20.8
2023-04-13T17:06:16.042Z,20.8
2023-04-13T17:08:16.930Z,20.7
2023-04-13T17:10:15.991Z,20.8
2023-04-13T17:12:15.980Z,20.6
2023-04-13T17:14:18.755Z,20.5
2023-04-13T17:16:16.232Z,21.0
2023-04-13T17:18:16.011Z,20.9
2023-04-13T17:20:17.157Z,20.7
2023-04-13T17:22:16.018Z,20.8
2023-04-13T17:24:16.117Z,21.0
2023-04-13T17:26:16.116Z,21.2
2023-04-13T17:28:16.039Z,21.0
2023-04-13T17:30:15.979Z,21.3
2023-04-13T17:32:16.135Z,21.2
2023-04-13T17:34:16.052Z,21.6
2023-04-13T17:36:15.981Z,21.7
2023-04-13T17:38:15.987Z,21.8
2023-04-13T17:40:19.130Z,21.7
2023-04-13T17:42:16.165Z,21.9
2023-04-13T17:44:16.104Z,21.7
2023-04-13T17:46:16.133Z,21.9
2023-04-13T17:48:17.697Z,21.9
2023-04-13T17:50:16.371Z,28.0
2023-04-13T17:52:16.084Z,26.3
2023-04-13T17:54:16.072Z,23.3
2023-04-13T17:56:16.012Z,21.9
2023-04-13T17:58:16.064Z,21.6
2023-04-13T18:00:21.715Z,21.7
2023-04-13T18:02:16.271Z,22.8
2023-04-13T18:04:16.457Z,22.2
2023-04-13T18:06:20.535Z,22.4
2023-04-13T18:08:16.058Z,22.3
2023-04-13T18:10:16.071Z,22.0
2023-04-13T18:12:16.112Z,21.8
2023-04-13T18:14:16.209Z,21.0
2023-04-13T18:16:16.632Z,20.7
2023-04-13T18:18:16.045Z,20.5
2023-04-13T18:20:19.006Z,20.4
2023-04-13T18:22:21.069Z,20.3
2023-04-13T18:24:16.106Z,20.2
2023-04-13T18:26:16.787Z,20.3
2023-04-13T18:28:15.960Z,20.6
2023-04-13T18:32:16.461Z,21.0
2023-04-13T18:36:38.981Z,21.1
2023-04-13T18:38:38.975Z,21.2
2023-04-13T18:40:38.874Z,21.1
2023-04-13T18:42:38.932Z,20.8
2023-04-13T18:44:38.944Z,20.9
2023-04-13T18:46:41.985Z,20.7
2023-04-13T18:48:39.119Z,20.9
2023-04-13T18:50:38.855Z,20.7
2023-04-13T18:52:38.872Z,20.6
2023-04-13T18:54:38.919Z,20.6
2023-04-13T18:56:38.872Z,20.8
2023-04-13T18:58:42.469Z,20.7
2023-04-13T19:00:38.830Z,20.6
2023-04-13T19:02:39.246Z,20.3
2023-04-13T19:04:39.134Z,20.3
2023-04-13T19:06:39.286Z,20.1
2023-04-13T19:08:38.904Z,20.2
2023-04-13T19:10:38.897Z,20.3
2023-04-13T19:12:38.960Z,20.5
2023-04-13T19:14:38.917Z,20.6
2023-04-13T19:16:38.987Z,20.9
2023-04-13T19:18:39.000Z,21.0
2023-04-13T19:20:42.355Z,21.0
2023-04-13T19:22:38.968Z,21.0
2023-04-13T19:24:39.033Z,21.1
2023-04-13T19:26:40.555Z,20.9
2023-04-13T19:28:38.853Z,20.9
2023-04-13T19:30:38.832Z,20.7
2023-04-13T19:32:38.922Z,20.4
2023-04-13T19:34:38.883Z,20.4
2023-04-13T19:36:38.929Z,20.2
2023-04-13T19:38:38.849Z,19.9
2023-04-13T19:40:38.854Z,20.0
2023-04-13T19:42:38.938Z,20.2
2023-04-13T19:44:38.871Z,20.4
2023-04-13T19:46:39.121Z,20.5
2023-04-13T19:48:38.861Z,20.6
2023-04-13T19:50:38.846Z,20.2
2023-04-13T19:52:38.854Z,20.3
2023-04-13T19:54:39.396Z,20.4
2023-04-13T19:57:39.544Z,20.3
2023-04-13T19:59:38.951Z,20.7
2023-04-13T20:01:39.104Z,20.8
2023-04-13T20:03:39.131Z,20.9
2023-04-13T20:05:38.885Z,21.0
2023-04-13T20:07:38.914Z,16.0
2023-04-13T20:09:38.886Z,20.7
2023-04-13T20:11:38.931Z,22.4
2023-04-13T20:13:39.004Z,22.6
2023-04-13T20:15:43.928Z,21.9
2023-04-13T20:17:39.442Z,22.9
2023-04-13T20:19:39.020Z,22.2
2023-04-13T20:21:39.142Z,21.3
2023-04-13T20:23:38.872Z,20.4
2023-04-13T20:25:38.974Z,20.2
2023-04-13T20:27:38.962Z,20.3
2023-04-13T20:29:38.957Z,20.8
2023-04-13T20:31:39.055Z,21.2
2023-04-13T20:33:38.933Z,21.3
2023-04-13T20:35:38.970Z,21.6
2023-04-13T20:37:38.957Z,21.2
2023-04-13T20:39:38.937Z,21.4
2023-04-13T20:41:39.079Z,21.3
2023-04-13T20:43:38.936Z,21.2
2023-04-13T20:45:39.009Z,21.6
2023-04-13T20:47:38.958Z,21.9
2023-04-13T20:49:38.936Z,21.7
2023-04-13T20:51:38.946Z,21.5
2023-04-13T20:53:38.928Z,21.6
2023-04-13T20:55:38.937Z,21.6
2023-04-13T20:57:39.101Z,21.6
2023-04-13T20:59:38.948Z,21.6
2023-04-13T21:01:44.095Z,21.5
2023-04-13T21:03:39.064Z,21.4
2023-04-13T21:05:38.982Z,21.3
2023-04-13T21:07:39.016Z,21.6
2023-04-13T21:09:39.034Z,21.6
2023-04-13T21:11:38.928Z,21.2
2023-04-13T21:13:38.933Z,21.0
2023-04-13T21:15:44.013Z,21.1
2023-04-13T21:17:39.036Z,21.0
2023-04-13T21:19:38.926Z,21.1
2023-04-13T21:21:38.955Z,21.5
2023-04-13T21:23:38.948Z,21.8
2023-04-13T21:25:39.575Z,21.7
2023-04-13T21:27:38.971Z,22.0
2023-04-13T21:29:39.510Z,21.8
2023-04-13T21:31:38.979Z,21.5
2023-04-13T21:33:38.996Z,21.4
2023-04-13T21:35:39.024Z,21.1
2023-04-13T21:37:38.943Z,21.5
2023-04-13T21:39:38.994Z,21.4
2023-04-13T21:41:38.950Z,21.5
2023-04-13T21:43:46.735Z,21.7
2023-04-13T21:45:39.046Z,21.3
2023-04-13T21:47:38.950Z,21.1
2023-04-13T21:49:38.932Z,21.2
2023-04-13T21:51:38.970Z,21.5
2023-04-13T21:53:39.217Z,21.4
2023-04-13T21:55:38.892Z,21.1
2023-04-13T21:57:38.912Z,20.9
2023-04-13T21:59:38.944Z,20.9
2023-04-13T22:01:39.040Z,20.9
2023-04-13T22:03:39.305Z,21.0
2023-04-13T22:05:39.488Z,21.3
2023-04-13T22:07:42.856Z,21.3
2023-04-13T22:09:38.932Z,21.3
2023-04-13T22:11:38.997Z,21.3
2023-04-13T22:13:39.038Z,21.5
2023-04-13T22:15:39.098Z,21.3
2023-04-13T22:17:38.932Z,21.2
2023-04-13T22:19:39.006Z,21.2
2023-04-13T22:21:38.934Z,20.9
2023-04-13T22:23:38.946Z,20.8
2023-04-13T22:25:38.974Z,21.1
2023-04-13T22:27:39.519Z,20.9
2023-04-13T22:29:39.324Z,20.9
2023-04-13T22:31:38.985Z,20.9
2023-04-13T22:33:38.938Z,21.1
2023-04-13T22:35:39.112Z,21.4
2023-04-13T22:37:38.982Z,21.1
2023-04-13T22:39:38.994Z,21.2
2023-04-13T22:41:38.997Z,21.1
2023-04-13T22:43:39.008Z,21.0
2023-04-13T22:45:43.872Z,21.1
2023-04-13T22:47:41.610Z,21.1
2023-04-13T22:49:38.975Z,21.1
2023-04-13T22:51:39.007Z,21.0
2023-04-13T22:53:44.746Z,21.0
2023-04-13T22:55:45.077Z,21.3
2023-04-13T22:57:45.024Z,21.4
2023-04-13T22:59:38.997Z,21.3
2023-04-13T23:01:39.229Z,21.4
2023-04-13T23:03:39.261Z,21.6
2023-04-13T23:05:39.672Z,21.4
2023-04-13T23:07:39.080Z,21.5
2023-04-13T23:09:39.108Z,21.4
2023-04-13T23:11:39.155Z,21.5
2023-04-13T23:13:39.026Z,21.3
2023-04-13T23:15:38.972Z,21.4
2023-04-13T23:17:39.068Z,21.4
2023-04-13T23:19:39.027Z,21.6
2023-04-13T23:21:39.016Z,21.6
2023-04-13T23:23:38.982Z,21.7
2023-04-13T23:25:39.030Z,21.6
2023-04-13T23:27:38.991Z,21.5
2023-04-13T23:30:39.019Z,21.6
2023-04-13T23:32:39.006Z,21.8
2023-04-13T23:34:39.101Z,21.8
2023-04-13T23:36:38.962Z,21.6
2023-04-13T23:38:39.006Z,21.5
2023-04-13T23:40:38.971Z,21.5
2023-04-13T23:42:39.673Z,21.6
2023-04-13T23:43:50.929Z,21.5
2023-04-13T23:46:39.050Z,21.4
2023-04-13T23:48:39.052Z,21.6
2023-04-13T23:50:39.047Z,21.3
2023-04-13T23:52:38.993Z,21.3
2023-04-13T23:54:39.035Z,21.3
2023-04-13T23:56:39.538Z,21.4
2023-04-13T23:58:39.017Z,21.5
